Flight Track Log - Related Links

Times and Time Zones

All times are in EST time to prevent confusion due to time zone crossing. See the CTL11 flight status page for this flight to view local times or setup timezone preferences in your user account.

Time Position Orientation Groundspeed Altitude Reporting Facility
EST Latitude Longitude Course Direction KTS MPH feet Rate Location/Type
Tue 07:28:32 AM 32.8500 -96.8500 180° South 75 86 1,100  Level Dallas / Fort Worth TRACON
Tue 07:29:32 AM 32.8167 -96.8500 180° South 100 115 2,400 1,286 Climbing Dallas / Fort Worth TRACON
Tue 07:30:38 AM 32.8000 -96.8667 220° Southwest 84 97 3,800 810 Climbing Dallas / Fort Worth TRACON
Tue 07:31:38 AM 32.7667 -96.8833 203° Southwest 136 157 4,100 100 Climbing Dallas / Fort Worth TRACON
Tue 07:32:38 AM 32.7333 -96.8833 180° South 144 166 4,000 222 Descending Dallas / Fort Worth TRACON
Tue 07:33:26 AM 32.7000 -96.8833 180° South 133 153 4,500 889 Climbing Dallas / Fort Worth TRACON
Tue 07:34:26 AM 32.6667 -96.8833 180° South 109 125 5,600 950 Climbing Dallas / Fort Worth TRACON
Tue 07:35:26 AM 32.6333 -96.8833 180° South 118 136 6,400 757 Climbing Dallas / Fort Worth TRACON
Tue 07:36:17 AM 32.6058 -96.8872 187° South 124 143 7,000 696 Climbing Fort Worth Center
Tue 07:37:18 AM 32.5711 -96.8861 178° South 126 145 7,700 492 Climbing Fort Worth Center
Tue 07:38:19 AM 32.5328 -96.8825 175° South 138 159 8,000 148 Climbing Fort Worth Center
Tue 07:39:20 AM 32.4867 -96.8783 176° South 163 188 8,000  Level Fort Worth Center
Tue 07:40:20 AM 32.4403 -96.8764 178° South 168 193 8,000  Level Fort Worth Center
Tue 07:41:22 AM 32.3881 -96.8778 181° South 174 200 8,000  Level Fort Worth Center
Tue 07:42:22 AM 32.3417 -96.8800 182° South 168 193 8,000  Level Fort Worth Center
Tue 07:43:23 AM 32.2992 -96.8956 197° South 161 185 8,000  Level Fort Worth Center
Tue 07:44:24 AM 32.2556 -96.9103 196° South 162 186 8,000 49 Level Fort Worth Center
Tue 07:45:25 AM 32.2128 -96.9211 192° South 167 192 8,100  Climbing Fort Worth Center
Tue 07:46:26 AM 32.1669 -96.9383 198° South 171 197 8,000 -49 Descending Fort Worth Center
Tue 07:47:27 AM 32.1225 -96.9514 194° South 167 192 8,000  Level Fort Worth Center
Tue 07:48:28 AM 32.0783 -96.9669 197° South 165 190 8,000  Level Fort Worth Center
Tue 07:49:29 AM 32.0344 -96.9814 196° South 164 189 8,000  Level Fort Worth Center
Tue 07:50:29 AM 31.9908 -96.9947 195° South 162 186 8,000  Level Fort Worth Center
Tue 07:51:30 AM 31.9392 -97.0111 195° South 165 190 8,000 -49 Level Fort Worth Center
Tue 07:52:31 AM 31.8942 -97.0289 199° South 167 192 7,900  Descending Fort Worth Center
Tue 07:53:28 AM 31.8561 -97.0425 197° South 167 192 8,000 51 Climbing Houston Center
Tue 07:54:29 AM 31.8106 -97.0569 195° South 166 191 8,000  Level Houston Center
Tue 07:55:30 AM 31.7656 -97.0725 196° South 167 192 8,000  Level Houston Center
Tue 07:56:31 AM 31.7200 -97.0869 195° South 167 192 8,000  Level Houston Center
Tue 07:57:32 AM 31.6697 -97.1058 198° South 164 189 8,000  Level Houston Center
Tue 07:58:33 AM 31.6258 -97.1219 197° South 163 188 8,000  Level Houston Center
Tue 07:59:34 AM 31.5817 -97.1367 196° South 163 188 8,000  Level Houston Center
Tue 08:00:35 AM 31.5378 -97.1539 198° South 164 189 8,000  Level Houston Center
Tue 08:01:36 AM 31.4933 -97.1714 199° South 165 190 8,000  Level Houston Center
Tue 08:02:38 AM 31.4503 -97.1889 199° South 164 189 8,000  Level Houston Center
Tue 08:03:39 AM 31.4047 -97.2036 195° South 166 191 8,000  Level Houston Center
Tue 08:04:40 AM 31.3600 -97.2197 197° South 166 191 8,000  Level Houston Center
Tue 08:05:41 AM 31.3147 -97.2344 196° South 166 191 8,000  Level Houston Center
Tue 08:06:42 AM 31.2711 -97.2517 199° South 165 190 8,000 -246 Level Houston Center
Tue 08:07:43 AM 31.2244 -97.2678 196° South 170 196 7,500 -639 Descending Houston Center
Tue 08:08:44 AM 31.1733 -97.2847 196° South 182 209 6,700 -689 Descending Houston Center
Tue 08:09:45 AM 31.1228 -97.3017 196° South 186 214 6,100 -344 Descending Houston Center
Tue 08:10:46 AM 31.0747 -97.3169 195° South 181 208 6,000 -49 Descending Houston Center
Tue 08:11:48 AM 31.0297 -97.3314 195° South 171 197 6,000  Level Houston Center
Tue 08:12:49 AM 30.9853 -97.3450 195° South 166 191 6,000  Level Houston Center
Tue 08:13:50 AM 30.9333 -97.3603 194° South 166 191 6,000  Level Houston Center
Tue 08:14:51 AM 30.8886 -97.3747 195° South 167 192 6,000  Level Houston Center
Tue 08:15:52 AM 30.8439 -97.3894 196° South 166 191 6,000  Level Houston Center
Tue 08:16:54 AM 30.7981 -97.4033 195° South 168 193 6,000 -146 Level Houston Center
Tue 08:17:55 AM 30.7564 -97.4289 208° Southwest 182 209 5,700 -393 Descending Houston Center
Tue 08:18:56 AM 30.7183 -97.4672 221° Southwest 180 207 5,200 -488 Descending Houston Center
Tue 08:19:58 AM 30.6817 -97.5047 221° Southwest 176 203 4,700 -585 Descending Houston Center
Tue 08:20:59 AM 30.6489 -97.5422 225° Southwest 168 193 4,000 -344 Descending Houston Center
Tue 08:22:00 AM 30.6178 -97.5786 225° Southwest 162 186 4,000  Level Houston Center
Tue 08:23:02 AM 30.5831 -97.6011 209° Southwest 149 171 4,000  Level Houston Center
Tue 08:24:03 AM 30.5464 -97.6172 201° Southwest 141 162 4,000  Level Houston Center
Tue 08:25:04 AM 30.5094 -97.6367 204° Southwest 144 166 4,000  Level Houston Center
Tue 08:26:06 AM 30.4728 -97.6558 204° Southwest 142 163 4,000  Level Houston Center
Tue 08:27:07 AM 30.4278 -97.6656 191° South 140 161 4,000 -49 Level Houston Center
Tue 08:28:09 AM 30.3875 -97.6608 174° South 143 165 3,900 -293 Descending Houston Center
Tue 08:29:10 AM 30.3542 -97.6600 179° South 127 146 3,400 -541 Descending Houston Center
Tue 08:30:11 AM 30.3222 -97.6600 180° South 119 137 2,800 -585 Descending Houston Center
Tue 08:31:13 AM 30.2914 -97.6603 180° South 114 131 2,200 -537 Descending Houston Center
Tue 08:32:14 AM 30.2603 -97.6586 177° South 111 128 1,700 -293 Descending Houston Center
Tue 08:33:16 AM 30.2303 -97.6569 177° South 111 128 1,600 -97 Descending Houston Center
Tue 08:35:00 AM 30.1945 -97.6699 185° South  Level Estimated

Login

Don't have an account? Register now (free) for customized features, flight alerts, and more!